createdAt,value
2022-09-23T00:00:13.291Z,6.91
2022-09-23T00:00:45.533Z,7.00
2022-09-23T00:01:18.121Z,6.93
2022-09-23T00:01:49.760Z,6.86
2022-09-23T00:02:22.625Z,6.86
2022-09-23T00:02:54.262Z,6.75
2022-09-23T00:03:28.423Z,6.76
2022-09-23T00:04:00.535Z,6.77
2022-09-23T00:04:32.148Z,6.77
2022-09-23T00:05:03.969Z,6.80
2022-09-23T00:05:37.963Z,6.73
2022-09-23T00:06:12.617Z,6.80
2022-09-23T00:06:44.139Z,6.76
2022-09-23T00:07:16.377Z,6.69
2022-09-23T00:07:49.172Z,6.73
2022-09-23T00:08:20.703Z,6.77
2022-09-23T00:08:52.631Z,6.70
2022-09-23T00:09:24.409Z,6.73
2022-09-23T00:09:56.081Z,6.80
2022-09-23T00:10:32.861Z,6.90
2022-09-23T00:11:07.849Z,6.80
2022-09-23T00:11:39.371Z,6.73
2022-09-23T00:12:10.957Z,6.73
2022-09-23T00:12:42.465Z,6.79
2022-09-23T00:13:13.969Z,6.83
2022-09-23T00:13:47.265Z,6.90
2022-09-23T00:14:18.911Z,6.80
2022-09-23T00:14:50.423Z,6.80
2022-09-23T00:15:22.295Z,6.69
2022-09-23T00:15:53.867Z,6.67
2022-09-23T00:16:29.261Z,6.70
2022-09-23T00:17:00.961Z,6.65
2022-09-23T00:17:32.777Z,6.57
2022-09-23T00:18:04.329Z,6.63
2022-09-23T00:18:36.486Z,6.70
2022-09-23T00:19:08.054Z,6.63
2022-09-23T00:19:40.342Z,6.63
2022-09-23T00:20:11.993Z,6.57
2022-09-23T00:20:44.756Z,6.54
2022-09-23T00:21:17.101Z,6.63
2022-09-23T00:21:48.681Z,6.63
2022-09-23T00:22:20.262Z,6.65
2022-09-23T00:22:53.149Z,6.66
2022-09-23T00:23:24.713Z,6.66
2022-09-23T00:23:56.255Z,6.65
2022-09-23T00:24:32.266Z,6.35
2022-09-23T00:25:07.693Z,6.39
2022-09-23T00:25:39.329Z,6.24
2022-09-23T00:26:15.787Z,6.22
2022-09-23T00:26:47.327Z,6.29
2022-09-23T00:27:21.049Z,6.40
2022-09-23T00:27:52.615Z,6.30
2022-09-23T00:28:24.595Z,6.36
2022-09-23T00:28:56.157Z,6.39
2022-09-23T00:29:27.685Z,6.29
2022-09-23T00:29:59.804Z,6.36
2022-09-23T00:30:32.409Z,6.32
2022-09-23T00:31:09.112Z,6.39
2022-09-23T00:31:40.747Z,6.38
2022-09-23T00:32:12.258Z,6.40
2022-09-23T00:32:43.769Z,6.36
2022-09-23T00:33:15.314Z,6.38
2022-09-23T00:33:46.982Z,6.38
2022-09-23T00:34:18.497Z,6.33
2022-09-23T00:34:50.027Z,6.36
2022-09-23T00:35:21.598Z,6.38
2022-09-23T00:35:59.251Z,6.40
2022-09-23T00:36:32.365Z,6.30
2022-09-23T00:37:03.986Z,6.36
2022-09-23T00:37:35.503Z,6.33
2022-09-23T00:38:07.242Z,6.40
2022-09-23T00:38:39.127Z,6.33
2022-09-23T00:39:10.634Z,6.35
2022-09-23T00:39:42.278Z,6.30
2022-09-23T00:40:13.905Z,6.33
2022-09-23T00:40:46.256Z,6.24
2022-09-23T00:41:18.209Z,6.08
2022-09-23T00:41:50.446Z,6.14
2022-09-23T00:42:24.249Z,6.18
2022-09-23T00:42:55.758Z,6.15
2022-09-23T00:43:45.466Z,6.14
2022-09-23T00:44:42.012Z,6.17
2022-09-23T00:45:14.054Z,6.05
2022-09-23T00:45:48.866Z,6.02
2022-09-23T00:46:25.113Z,6.11
2022-09-23T00:46:57.290Z,6.21
2022-09-23T00:47:39.418Z,6.25
2022-09-23T00:48:17.017Z,6.29
2022-09-23T00:48:54.848Z,6.28
2022-09-23T00:49:29.914Z,6.30
2022-09-23T00:50:27.413Z,6.29
2022-09-23T00:50:58.945Z,6.22
2022-09-23T00:51:34.766Z,6.25
2022-09-23T00:52:17.918Z,6.18
2022-09-23T00:52:52.425Z,6.17
2022-09-23T00:53:26.732Z,6.18
2022-09-23T00:53:58.494Z,6.18
2022-09-23T00:54:31.181Z,6.19
2022-09-23T00:55:07.429Z,6.14
2022-09-23T00:55:43.881Z,6.19
2022-09-23T00:56:16.151Z,6.22
2022-09-23T00:56:48.110Z,6.24
2022-09-23T00:57:20.201Z,6.28
2022-09-23T00:57:55.841Z,6.24
2022-09-23T00:58:31.793Z,6.30
2022-09-23T00:59:03.679Z,6.36
2022-09-23T00:59:35.825Z,6.35
2022-09-23T01:00:08.221Z,6.30
2022-09-23T01:00:39.720Z,6.26
2022-09-23T01:01:14.022Z,6.30
2022-09-23T01:01:46.510Z,6.21
2022-09-23T01:02:21.124Z,6.07
2022-09-23T01:02:52.889Z,5.97
2022-09-23T01:03:24.486Z,6.04
2022-09-23T01:03:57.618Z,6.05
2022-09-23T01:04:30.003Z,6.04
2022-09-23T01:05:05.026Z,6.09
2022-09-23T01:05:36.798Z,6.02
2022-09-23T01:06:08.938Z,5.97
2022-09-23T01:06:41.439Z,6.02
2022-09-23T01:07:13.726Z,6.02
2022-09-23T01:07:45.962Z,5.99
2022-09-23T01:08:18.020Z,5.93
2022-09-23T01:08:50.205Z,5.98
2022-09-23T01:09:23.167Z,6.01
2022-09-23T01:09:54.697Z,6.02
2022-09-23T01:10:33.010Z,5.99
2022-09-23T01:11:23.957Z,5.98
2022-09-23T01:12:07.314Z,6.01
2022-09-23T01:12:51.113Z,5.99
2022-09-23T01:13:28.566Z,5.84
2022-09-23T01:14:22.441Z,5.86
2022-09-23T01:15:09.237Z,5.77
2022-09-23T01:15:48.524Z,5.87
2022-09-23T01:16:41.175Z,5.94
2022-09-23T01:17:18.492Z,5.91
2022-09-23T01:18:15.538Z,5.97
2022-09-23T01:19:11.169Z,5.94
2022-09-23T01:20:29.044Z,6.01
2022-09-23T01:21:15.272Z,5.97
2022-09-23T01:22:11.615Z,5.97
2022-09-23T01:22:58.360Z,6.01
2022-09-23T01:23:44.964Z,5.94
2022-09-23T01:24:35.383Z,5.91
2022-09-23T01:25:24.947Z,5.91
2022-09-23T01:26:23.863Z,5.94
2022-09-23T01:27:19.392Z,6.01
2022-09-23T01:28:09.406Z,5.94
2022-09-23T01:29:06.230Z,5.91
2022-09-23T01:29:49.940Z,5.80
2022-09-23T01:30:33.707Z,5.80
2022-09-23T01:31:28.252Z,5.93
2022-09-23T01:32:17.955Z,5.84
2022-09-23T01:33:09.935Z,5.90
2022-09-23T01:34:10.166Z,5.75
2022-09-23T01:34:47.808Z,5.71
2022-09-23T01:35:43.654Z,5.75
2022-09-23T01:36:33.782Z,5.68
2022-09-23T01:37:13.098Z,5.61
2022-09-23T01:38:19.854Z,5.60
2022-09-23T01:38:51.320Z,5.60
2022-09-23T01:39:42.917Z,5.60
2022-09-23T01:40:22.858Z,5.60
2022-09-23T01:41:00.948Z,5.53
2022-09-23T01:42:17.330Z,5.51
2022-09-23T01:43:05.930Z,5.50
2022-09-23T01:43:47.808Z,5.51
2022-09-23T01:44:34.898Z,5.61
2022-09-23T01:45:17.709Z,5.57
2022-09-23T01:45:54.426Z,5.63
2022-09-23T01:46:40.093Z,5.54
2022-09-23T01:47:17.541Z,5.57
2022-09-23T01:47:55.595Z,5.63
2022-09-23T01:48:37.205Z,5.66
2022-09-23T01:49:16.370Z,5.64
2022-09-23T01:49:56.241Z,5.61
2022-09-23T01:50:56.292Z,5.60
2022-09-23T01:51:46.701Z,5.64
2022-09-23T01:52:29.237Z,5.60
2022-09-23T01:53:07.086Z,5.64
2022-09-23T01:53:59.583Z,5.68
2022-09-23T01:54:39.892Z,5.70
2022-09-23T01:55:24.660Z,5.71
2022-09-23T01:56:02.124Z,5.71
2022-09-23T01:56:38.712Z,5.74
2022-09-23T01:57:16.044Z,5.73
2022-09-23T01:58:02.918Z,5.75
2022-09-23T01:58:41.876Z,5.78
2022-09-23T01:59:21.574Z,5.73
2022-09-23T02:00:00.622Z,5.74
2022-09-23T02:01:17.613Z,5.71
2022-09-23T02:02:19.349Z,5.71
2022-09-23T02:03:07.566Z,5.66
2022-09-23T02:04:36.684Z,5.75
2022-09-23T02:05:17.631Z,5.80
2022-09-23T02:05:54.009Z,5.87
2022-09-23T02:06:30.078Z,5.93
2022-09-23T02:07:15.186Z,5.93
2022-09-23T02:08:11.173Z,5.91
2022-09-23T02:08:56.509Z,5.88
2022-09-23T02:09:37.301Z,5.84
2022-09-23T02:10:30.514Z,5.84
2022-09-23T02:11:16.529Z,5.78
2022-09-23T02:11:52.487Z,5.74
2022-09-23T02:12:28.586Z,5.86
2022-09-23T02:13:13.829Z,5.78
2022-09-23T02:13:59.934Z,5.77
2022-09-23T02:14:37.515Z,5.74
2022-09-23T02:15:14.462Z,5.64
2022-09-23T02:15:53.209Z,5.67
2022-09-23T02:16:36.018Z,5.63
2022-09-23T02:17:11.249Z,5.57
2022-09-23T02:17:49.138Z,5.64
2022-09-23T02:18:28.844Z,5.54
2022-09-23T02:19:06.891Z,5.63
2022-09-23T02:19:54.058Z,5.61
2022-09-23T02:20:30.214Z,5.56
2022-09-23T02:21:06.490Z,5.63
2022-09-23T02:21:47.304Z,5.43
2022-09-23T02:22:25.853Z,5.59
2022-09-23T02:23:07.597Z,5.46
2022-09-23T02:23:45.974Z,5.44
2022-09-23T02:24:21.740Z,5.42
2022-09-23T02:24:54.706Z,5.51
2022-09-23T02:25:35.186Z,5.57
2022-09-23T02:26:51.402Z,5.60
2022-09-23T02:27:46.460Z,5.68
2022-09-23T02:28:25.396Z,5.68
2022-09-23T02:29:18.466Z,5.71
2022-09-23T02:30:14.208Z,5.67
2022-09-23T02:30:51.981Z,5.70
2022-09-23T02:31:53.691Z,5.71
2022-09-23T02:32:55.221Z,5.68
2022-09-23T02:34:12.776Z,5.59
2022-09-23T02:35:10.129Z,5.59
2022-09-23T02:35:52.642Z,5.46
2022-09-23T02:36:38.180Z,5.38
2022-09-23T02:37:47.575Z,5.35
2022-09-23T02:38:23.526Z,5.35
2022-09-23T02:39:05.156Z,5.30
2022-09-23T02:40:11.808Z,5.40
2022-09-23T02:41:02.416Z,5.36
2022-09-23T02:41:44.690Z,5.46
2022-09-23T02:42:22.035Z,5.43
2022-09-23T02:43:19.887Z,5.43
2022-09-23T02:44:00.516Z,5.46
2022-09-23T02:44:32.959Z,5.50
2022-09-23T02:45:05.405Z,5.53
2022-09-23T02:45:38.992Z,5.53
2022-09-23T02:46:10.772Z,5.51
2022-09-23T02:46:45.482Z,5.53
2022-09-23T02:47:21.669Z,5.42
2022-09-23T02:48:00.566Z,5.35
2022-09-23T02:48:42.401Z,5.38
2022-09-23T02:49:19.092Z,5.28
2022-09-23T02:49:50.726Z,5.25
2022-09-23T02:50:22.617Z,5.25
2022-09-23T02:50:54.431Z,5.26
2022-09-23T02:51:25.970Z,5.32
2022-09-23T02:52:01.282Z,5.29
2022-09-23T02:52:33.317Z,5.28
2022-09-23T02:53:06.273Z,5.22
2022-09-23T02:53:38.156Z,5.22
2022-09-23T02:54:14.949Z,5.22
2022-09-23T02:54:46.610Z,5.18
2022-09-23T02:55:23.393Z,5.23
2022-09-23T02:55:54.899Z,5.22
2022-09-23T02:56:26.409Z,5.26
2022-09-23T02:57:01.157Z,5.26
2022-09-23T02:57:32.810Z,5.29
2022-09-23T02:58:05.470Z,5.38
2022-09-23T02:58:37.082Z,5.36
2022-09-23T02:59:10.253Z,5.40
2022-09-23T02:59:41.793Z,5.39
2022-09-23T03:00:13.922Z,5.36
2022-09-23T03:01:15.896Z,5.35
2022-09-23T03:02:04.292Z,5.35
2022-09-23T03:03:13.330Z,5.28
2022-09-23T03:03:48.937Z,5.25
2022-09-23T03:04:32.034Z,5.26
2022-09-23T03:05:23.911Z,5.35
2022-09-23T03:05:58.728Z,5.32
2022-09-23T03:06:41.574Z,5.29
2022-09-23T03:07:32.393Z,5.23
2022-09-23T03:08:19.265Z,5.23
2022-09-23T03:09:00.656Z,5.18
2022-09-23T03:09:40.037Z,5.05
2022-09-23T03:10:41.313Z,5.13
2022-09-23T03:11:13.646Z,5.08
2022-09-23T03:11:52.004Z,5.12
2022-09-23T03:12:36.055Z,5.11
2022-09-23T03:13:17.224Z,5.08
2022-09-23T03:13:54.344Z,5.12
2022-09-23T03:14:53.786Z,5.16
2022-09-23T03:15:30.081Z,5.18
2022-09-23T03:16:07.353Z,5.23
2022-09-23T03:16:47.977Z,5.30
2022-09-23T03:17:46.776Z,5.30
2022-09-23T03:18:41.882Z,5.22
2022-09-23T03:19:29.043Z,5.19
2022-09-23T03:20:03.430Z,5.22
2022-09-23T03:20:42.584Z,5.23
2022-09-23T03:21:39.074Z,5.25
2022-09-23T03:22:17.451Z,5.25
2022-09-23T03:22:54.596Z,5.25
2022-09-23T03:23:35.799Z,5.26
2022-09-23T03:24:10.814Z,5.25
2022-09-23T03:24:44.879Z,5.26
2022-09-23T03:25:19.832Z,5.23
2022-09-23T03:25:54.570Z,5.25
2022-09-23T03:26:33.486Z,5.35
2022-09-23T03:27:13.783Z,5.40
2022-09-23T03:27:45.625Z,5.32
2022-09-23T03:28:20.258Z,5.25
2022-09-23T03:28:53.902Z,5.28
2022-09-23T03:29:25.856Z,5.26
2022-09-23T03:29:57.835Z,5.19
2022-09-23T03:30:31.694Z,5.18
2022-09-23T03:31:04.633Z,5.12
2022-09-23T03:31:39.077Z,5.05
2022-09-23T03:32:10.686Z,5.08
2022-09-23T03:32:47.106Z,5.15
2022-09-23T03:33:28.417Z,5.12
2022-09-23T03:34:05.435Z,5.08
2022-09-23T03:34:38.289Z,5.08
2022-09-23T03:35:10.190Z,5.01
2022-09-23T03:36:07.701Z,4.93
2022-09-23T03:36:52.117Z,5.01
2022-09-23T03:37:31.395Z,5.05
2022-09-23T03:38:16.246Z,5.02
2022-09-23T03:38:51.537Z,4.98
2022-09-23T03:39:42.604Z,5.01
2022-09-23T03:40:40.174Z,5.07
2022-09-23T03:41:16.990Z,5.05
2022-09-23T03:41:52.739Z,5.11
2022-09-23T03:42:28.826Z,5.12
2022-09-23T03:43:02.614Z,5.16
2022-09-23T03:43:38.743Z,5.19
2022-09-23T03:44:11.926Z,5.20
2022-09-23T03:44:45.596Z,5.16
2022-09-23T03:45:21.941Z,5.07
2022-09-23T03:45:57.387Z,5.11
2022-09-23T03:46:30.231Z,5.12
2022-09-23T03:47:02.926Z,5.18
2022-09-23T03:47:35.106Z,5.18
2022-09-23T03:48:07.151Z,5.16
2022-09-23T03:48:38.686Z,5.15
2022-09-23T03:49:17.205Z,5.22
2022-09-23T03:49:49.847Z,5.18
2022-09-23T03:50:21.362Z,5.09
2022-09-23T03:50:53.167Z,5.11
2022-09-23T03:51:24.771Z,5.12
2022-09-23T03:51:56.390Z,5.09
2022-09-23T03:52:28.555Z,5.08
2022-09-23T03:53:00.118Z,5.19
2022-09-23T03:53:31.633Z,5.11
2022-09-23T03:54:03.131Z,5.07
2022-09-23T03:54:34.971Z,5.18
2022-09-23T03:55:07.626Z,5.11
2022-09-23T03:55:39.353Z,5.16
2022-09-23T03:56:11.702Z,5.13
2022-09-23T03:56:44.207Z,5.18
2022-09-23T03:57:15.759Z,5.09
2022-09-23T03:57:47.980Z,5.16
2022-09-23T03:58:19.495Z,5.23
2022-09-23T03:58:51.114Z,5.26
2022-09-23T03:59:22.962Z,5.26
2022-09-23T03:59:54.463Z,5.23
2022-09-23T04:00:26.101Z,5.26
2022-09-23T04:00:58.816Z,5.26
2022-09-23T04:01:30.412Z,5.19
2022-09-23T04:02:02.646Z,5.15
2022-09-23T04:02:34.678Z,5.19
2022-09-23T04:03:10.910Z,5.19
2022-09-23T04:03:43.412Z,5.25
2022-09-23T04:04:14.910Z,5.13
2022-09-23T04:04:46.538Z,5.07
2022-09-23T04:05:18.228Z,5.12
2022-09-23T04:05:49.868Z,5.02
2022-09-23T04:06:22.389Z,5.07
2022-09-23T04:06:56.989Z,5.07
2022-09-23T04:07:28.621Z,5.02
2022-09-23T04:08:00.174Z,5.01
2022-09-23T04:08:31.709Z,5.07
2022-09-23T04:09:03.602Z,5.12
2022-09-23T04:09:35.712Z,5.08
2022-09-23T04:10:07.678Z,5.11
2022-09-23T04:10:41.914Z,4.99
2022-09-23T04:11:13.452Z,5.05
2022-09-23T04:11:44.948Z,5.05
2022-09-23T04:12:17.232Z,5.08
2022-09-23T04:12:48.848Z,5.02
2022-09-23T04:13:20.364Z,5.09
2022-09-23T04:13:51.853Z,5.13
2022-09-23T04:14:24.224Z,5.13
2022-09-23T04:14:55.789Z,5.11
2022-09-23T04:15:27.300Z,5.11
2022-09-23T04:15:59.121Z,5.13
2022-09-23T04:16:30.805Z,5.16
2022-09-23T04:17:02.767Z,5.19
2022-09-23T04:17:34.270Z,5.25
2022-09-23T04:18:05.833Z,5.26
2022-09-23T04:18:37.637Z,5.32
2022-09-23T04:19:11.734Z,5.28
2022-09-23T04:19:45.040Z,5.28
2022-09-23T04:20:17.298Z,5.23
2022-09-23T04:20:49.165Z,5.26
2022-09-23T04:21:20.694Z,5.19
2022-09-23T04:21:52.180Z,5.22
2022-09-23T04:22:23.823Z,5.22
2022-09-23T04:22:56.266Z,5.23
2022-09-23T04:23:28.018Z,5.22
2022-09-23T04:23:59.554Z,5.20
2022-09-23T04:24:31.098Z,5.15
2022-09-23T04:25:02.615Z,5.19
2022-09-23T04:25:34.206Z,5.19
2022-09-23T04:26:06.121Z,5.25
2022-09-23T04:26:38.892Z,5.28
2022-09-23T04:27:10.394Z,5.22
2022-09-23T04:27:41.890Z,5.30
2022-09-23T04:28:13.804Z,5.33
2022-09-23T04:28:45.338Z,5.36
2022-09-23T04:29:16.847Z,5.30
2022-09-23T04:29:48.368Z,5.36
2022-09-23T04:30:19.862Z,5.29
2022-09-23T04:30:51.454Z,5.28
2022-09-23T04:31:25.685Z,5.29
2022-09-23T04:31:57.822Z,5.33
2022-09-23T04:32:29.699Z,5.28
2022-09-23T04:33:01.219Z,5.19
2022-09-23T04:33:33.456Z,5.23
2022-09-23T04:34:04.981Z,5.19
2022-09-23T04:34:36.495Z,5.20
2022-09-23T04:35:08.335Z,5.18
2022-09-23T04:35:40.818Z,5.18
2022-09-23T04:36:12.324Z,5.18
2022-09-23T04:36:48.912Z,5.19
2022-09-23T04:37:20.434Z,5.28
2022-09-23T04:37:51.973Z,5.25
2022-09-23T04:38:23.507Z,5.26
2022-09-23T04:38:55.069Z,5.28
2022-09-23T04:39:26.631Z,5.28
2022-09-23T04:39:58.185Z,5.28
2022-09-23T04:40:29.734Z,5.23
2022-09-23T04:41:01.356Z,5.26
2022-09-23T04:41:32.896Z,5.29
2022-09-23T04:42:04.453Z,5.19
2022-09-23T04:42:35.960Z,5.28
2022-09-23T04:43:11.678Z,5.23
2022-09-23T04:43:45.437Z,5.22
2022-09-23T04:44:17.106Z,5.22
2022-09-23T04:44:48.753Z,5.23
2022-09-23T04:45:20.353Z,5.30
2022-09-23T04:46:02.713Z,5.32
2022-09-23T04:46:34.624Z,5.23
2022-09-23T04:47:06.433Z,5.23
2022-09-23T04:47:37.979Z,5.30
2022-09-23T04:48:10.741Z,5.26
2022-09-23T04:48:43.028Z,5.32
2022-09-23T04:49:16.250Z,5.32
2022-09-23T04:49:47.734Z,5.29
2022-09-23T04:50:19.282Z,5.32
2022-09-23T04:50:50.803Z,5.33
2022-09-23T04:51:24.832Z,5.28
2022-09-23T04:51:56.412Z,5.32
2022-09-23T04:52:29.916Z,5.28
2022-09-23T04:53:02.372Z,5.36
2022-09-23T04:53:35.787Z,5.33
2022-09-23T04:54:07.277Z,5.26
2022-09-23T04:54:38.850Z,5.23
2022-09-23T04:55:11.412Z,5.30
2022-09-23T04:55:43.560Z,5.33
2022-09-23T04:56:18.543Z,5.30
2022-09-23T04:56:50.066Z,5.29
2022-09-23T04:57:21.550Z,5.33
2022-09-23T04:57:53.051Z,5.29
2022-09-23T04:58:25.326Z,5.33
2022-09-23T04:58:58.185Z,5.38
2022-09-23T04:59:30.270Z,5.32
2022-09-23T05:00:01.997Z,5.39
2022-09-23T05:00:33.583Z,5.33
2022-09-23T05:01:10.465Z,5.36
2022-09-23T05:01:42.094Z,5.40
2022-09-23T05:02:13.815Z,5.38
2022-09-23T05:02:46.630Z,5.33
2022-09-23T05:03:18.127Z,5.43
2022-09-23T05:03:49.638Z,5.46
2022-09-23T05:04:21.182Z,5.38
2022-09-23T05:04:52.730Z,5.40
2022-09-23T05:05:24.263Z,5.32
2022-09-23T05:05:59.925Z,5.33
2022-09-23T05:06:34.517Z,5.33
2022-09-23T05:07:06.043Z,5.30
2022-09-23T05:07:37.590Z,5.38
2022-09-23T05:08:09.126Z,5.39
2022-09-23T05:08:41.919Z,5.38
2022-09-23T05:09:17.603Z,5.36
2022-09-23T05:09:49.086Z,5.38
2022-09-23T05:10:20.597Z,5.33
2022-09-23T05:10:59.947Z,5.32
2022-09-23T05:11:31.872Z,5.38
2022-09-23T05:12:03.561Z,5.39
2022-09-23T05:12:35.102Z,5.49
2022-09-23T05:13:06.581Z,5.51
2022-09-23T05:13:38.120Z,5.46
2022-09-23T05:14:10.027Z,5.42
2022-09-23T05:14:41.555Z,5.40
2022-09-23T05:15:16.178Z,5.47
2022-09-23T05:15:47.868Z,5.47
2022-09-23T05:16:20.704Z,5.51
2022-09-23T05:16:52.509Z,5.47
2022-09-23T05:17:24.014Z,5.49
2022-09-23T05:17:59.137Z,5.54
2022-09-23T05:18:32.089Z,5.61
2022-09-23T05:19:04.043Z,5.59
2022-09-23T05:19:35.536Z,5.56
2022-09-23T05:20:07.700Z,5.61
2022-09-23T05:20:39.418Z,5.59
2022-09-23T05:21:13.446Z,5.64
2022-09-23T05:21:45.021Z,5.73
2022-09-23T05:22:16.568Z,5.78
2022-09-23T05:22:48.072Z,5.86
2022-09-23T05:23:19.693Z,5.94
2022-09-23T05:23:56.497Z,6.08
2022-09-23T05:24:28.243Z,6.09
2022-09-23T05:25:02.245Z,6.08
2022-09-23T05:25:38.225Z,6.07
2022-09-23T05:26:12.312Z,5.94
2022-09-23T05:26:43.819Z,6.01
2022-09-23T05:27:15.657Z,6.11
2022-09-23T05:27:47.148Z,6.11
2022-09-23T05:28:20.114Z,6.11
2022-09-23T05:28:52.654Z,6.29
2022-09-23T05:29:24.137Z,6.42
2022-09-23T05:29:55.659Z,6.60
2022-09-23T05:30:27.163Z,6.79
2022-09-23T05:31:04.356Z,6.81
2022-09-23T05:31:36.930Z,6.66
2022-09-23T05:32:08.467Z,6.56
2022-09-23T05:32:39.984Z,6.46
2022-09-23T05:33:12.004Z,6.43
2022-09-23T05:33:46.063Z,6.36
2022-09-23T05:34:18.700Z,6.32
2022-09-23T05:34:50.201Z,6.35
2022-09-23T05:35:21.955Z,6.35
2022-09-23T05:35:53.448Z,6.36
2022-09-23T05:36:26.871Z,6.38
2022-09-23T05:36:58.384Z,6.29
2022-09-23T05:37:29.868Z,6.29
2022-09-23T05:38:01.373Z,6.29
2022-09-23T05:38:33.981Z,6.29
2022-09-23T05:39:06.657Z,6.33
2022-09-23T05:39:38.390Z,6.33
2022-09-23T05:40:10.115Z,6.24
2022-09-23T05:40:41.853Z,6.30
2022-09-23T05:41:14.148Z,6.39
2022-09-23T05:41:46.443Z,6.35
2022-09-23T05:42:18.276Z,6.40
2022-09-23T05:42:50.799Z,6.49
2022-09-23T05:43:22.685Z,6.46
2022-09-23T05:43:55.485Z,6.59
2022-09-23T05:44:27.013Z,6.47
2022-09-23T05:44:58.523Z,6.53
2022-09-23T05:45:30.013Z,6.59
2022-09-23T05:46:12.574Z,6.59
2022-09-23T05:46:44.363Z,6.52
2022-09-23T05:47:15.965Z,6.54
2022-09-23T05:47:47.467Z,6.66
2022-09-23T05:48:19.031Z,6.72
2022-09-23T05:48:51.182Z,6.63
2022-09-23T05:49:37.684Z,6.62
2022-09-23T05:50:14.222Z,6.59
2022-09-23T05:50:52.400Z,6.59
2022-09-23T05:51:30.647Z,6.62
2022-09-23T05:52:02.953Z,6.66
2022-09-23T05:52:34.816Z,6.72
2022-09-23T05:53:06.323Z,6.70
2022-09-23T05:53:38.119Z,6.75
2022-09-23T05:54:09.761Z,6.77
2022-09-23T05:54:41.290Z,6.77
2022-09-23T05:55:12.825Z,6.79
2022-09-23T05:55:45.545Z,6.79
2022-09-23T05:56:18.847Z,6.83
2022-09-23T05:56:50.343Z,6.87
2022-09-23T05:57:21.915Z,6.91
2022-09-23T05:57:53.603Z,6.96
2022-09-23T05:58:25.562Z,6.98
2022-09-23T05:59:00.396Z,7.04
2022-09-23T05:59:32.729Z,7.08
2022-09-23T06:00:04.774Z,7.11
2022-09-23T06:00:36.277Z,7.18
2022-09-23T06:01:18.126Z,7.15
2022-09-23T06:01:52.127Z,7.14
2022-09-23T06:02:27.249Z,7.17
2022-09-23T06:02:58.828Z,7.25
2022-09-23T06:03:30.339Z,7.34
2022-09-23T06:04:04.041Z,7.38
2022-09-23T06:04:35.531Z,7.41
2022-09-23T06:05:07.265Z,7.42
2022-09-23T06:05:38.776Z,7.38
2022-09-23T06:06:14.573Z,7.38
2022-09-23T06:06:46.169Z,7.35
2022-09-23T06:07:17.730Z,7.41
2022-09-23T06:07:49.285Z,7.46
2022-09-23T06:08:21.867Z,7.51
2022-09-23T06:08:53.656Z,7.45
2022-09-23T06:09:25.153Z,7.46
2022-09-23T06:09:56.641Z,7.56
2022-09-23T06:10:28.363Z,7.63
2022-09-23T06:11:07.658Z,7.61
2022-09-23T06:11:40.002Z,7.59
2022-09-23T06:12:14.082Z,7.62
2022-09-23T06:12:45.567Z,7.69
2022-09-23T06:13:17.140Z,7.77
2022-09-23T06:13:49.349Z,7.77
2022-09-23T06:14:20.880Z,7.83
2022-09-23T06:14:52.966Z,7.82
2022-09-23T06:15:24.522Z,7.87
2022-09-23T06:15:58.183Z,7.94
2022-09-23T06:16:32.698Z,7.91
2022-09-23T06:17:05.542Z,7.90
2022-09-23T06:17:37.041Z,7.96
2022-09-23T06:18:08.545Z,8.07
2022-09-23T06:18:41.543Z,8.14
2022-09-23T06:19:13.031Z,8.14
2022-09-23T06:19:44.523Z,8.20
2022-09-23T06:20:16.307Z,8.24
2022-09-23T06:20:48.215Z,8.23
2022-09-23T06:21:19.983Z,8.33
2022-09-23T06:21:51.482Z,8.23
2022-09-23T06:22:24.754Z,8.18
2022-09-23T06:23:02.400Z,8.24
2022-09-23T06:23:36.514Z,8.27
2022-09-23T06:24:09.431Z,8.34
2022-09-23T06:24:40.971Z,8.41
2022-09-23T06:25:12.949Z,8.34
2022-09-23T06:25:44.466Z,8.28
2022-09-23T06:26:16.753Z,8.35
2022-09-23T06:26:48.417Z,8.25
2022-09-23T06:27:20.131Z,8.21
2022-09-23T06:27:55.777Z,8.28
2022-09-23T06:28:40.392Z,8.37
2022-09-23T06:29:12.319Z,8.33
2022-09-23T06:29:43.934Z,8.34
2022-09-23T06:30:16.874Z,8.33
2022-09-23T06:30:49.425Z,8.40
2022-09-23T06:31:21.015Z,8.40
2022-09-23T06:31:52.594Z,8.44
2022-09-23T06:32:24.144Z,8.51
2022-09-23T06:32:57.914Z,8.46
2022-09-23T06:33:36.746Z,8.62
2022-09-23T06:34:14.177Z,8.61
2022-09-23T06:34:51.417Z,8.65
2022-09-23T06:35:27.865Z,8.72
2022-09-23T06:36:00.922Z,8.75
2022-09-23T06:36:42.403Z,8.87
2022-09-23T06:37:20.285Z,8.83
2022-09-23T06:37:53.657Z,8.97
2022-09-23T06:38:26.467Z,8.97
2022-09-23T06:38:58.033Z,9.14
2022-09-23T06:39:30.081Z,9.24
2022-09-23T06:40:01.977Z,9.33
2022-09-23T06:40:33.559Z,9.33
2022-09-23T06:41:05.115Z,9.40
2022-09-23T06:41:36.686Z,9.57
2022-09-23T06:42:08.257Z,9.52
2022-09-23T06:42:41.314Z,9.68
2022-09-23T06:43:12.801Z,9.79
2022-09-23T06:43:44.343Z,10.02
2022-09-23T06:44:16.114Z,10.30
2022-09-23T06:44:47.615Z,10.53
2022-09-23T06:45:19.135Z,10.84
2022-09-23T06:45:54.993Z,11.16
2022-09-23T06:46:26.575Z,11.70
2022-09-23T06:46:58.261Z,12.14
2022-09-23T06:47:29.837Z,12.59
2022-09-23T06:48:06.071Z,12.99
2022-09-23T06:48:37.617Z,13.20
2022-09-23T06:49:09.263Z,13.75
2022-09-23T06:49:41.145Z,14.34
2022-09-23T06:50:12.645Z,14.87
2022-09-23T06:50:44.335Z,15.19
2022-09-23T06:51:19.273Z,16.05
2022-09-23T06:51:50.854Z,16.84
2022-09-23T06:52:22.338Z,17.44
2022-09-23T06:52:56.261Z,17.97
2022-09-23T06:53:30.007Z,18.03
2022-09-23T06:54:01.539Z,18.50
2022-09-23T06:54:33.110Z,18.76
2022-09-23T06:55:05.208Z,19.04
2022-09-23T06:55:36.708Z,19.45
2022-09-23T06:56:11.160Z,20.15
2022-09-23T06:56:44.325Z,20.65
2022-09-23T06:57:15.845Z,20.84
2022-09-23T06:57:47.335Z,21.01
2022-09-23T06:58:18.833Z,20.68
2022-09-23T06:58:52.299Z,21.03
2022-09-23T06:59:24.986Z,20.99
2022-09-23T06:59:59.112Z,21.61
2022-09-23T07:00:30.644Z,21.32
2022-09-23T07:01:03.758Z,21.69
2022-09-23T07:01:35.522Z,21.55
2022-09-23T07:02:08.984Z,21.51
2022-09-23T07:02:42.203Z,20.99
2022-09-23T07:03:13.841Z,21.04
2022-09-23T07:03:48.241Z,21.61
2022-09-23T07:04:19.813Z,21.15
2022-09-23T07:04:51.617Z,21.58
2022-09-23T07:05:23.195Z,21.58
2022-09-23T07:05:56.236Z,21.71
2022-09-23T07:06:27.801Z,22.14
2022-09-23T07:06:59.432Z,22.07
2022-09-23T07:07:31.502Z,21.97
2022-09-23T07:08:03.338Z,22.77
2022-09-23T07:08:35.948Z,22.68
2022-09-23T07:09:08.832Z,22.74
2022-09-23T07:09:40.451Z,23.14
2022-09-23T07:10:12.409Z,23.87
2022-09-23T07:10:51.273Z,23.46
2022-09-23T07:11:23.078Z,24.38
2022-09-23T07:11:54.728Z,24.25
2022-09-23T07:12:26.259Z,23.42
2022-09-23T07:13:02.068Z,23.71
2022-09-23T07:13:34.278Z,24.10
2022-09-23T07:14:05.781Z,24.31
2022-09-23T07:14:37.297Z,24.68
2022-09-23T07:15:09.806Z,24.41
2022-09-23T07:15:41.547Z,24.65
2022-09-23T07:16:13.084Z,25.17
2022-09-23T07:16:44.665Z,24.51
2022-09-23T07:17:16.171Z,24.22
2022-09-23T07:17:47.655Z,24.69
2022-09-23T07:18:22.281Z,24.24
2022-09-23T07:18:54.678Z,24.39
2022-09-23T07:19:26.193Z,24.36
2022-09-23T07:19:58.469Z,23.78
2022-09-23T07:20:29.961Z,24.31
2022-09-23T07:21:15.212Z,24.11
2022-09-23T07:21:47.020Z,24.62
2022-09-23T07:22:19.027Z,24.47
2022-09-23T07:22:52.180Z,23.54
2022-09-23T07:23:24.176Z,23.63
2022-09-23T07:23:58.091Z,24.08
2022-09-23T07:24:29.669Z,23.63
2022-09-23T07:25:01.150Z,23.96
2022-09-23T07:25:34.126Z,24.41
2022-09-23T07:26:07.765Z,24.63
2022-09-23T07:26:44.899Z,24.70
2022-09-23T07:27:19.427Z,24.35
2022-09-23T07:27:50.966Z,24.73
2022-09-23T07:28:22.665Z,24.32
2022-09-23T07:29:04.497Z,23.43
2022-09-23T07:29:47.258Z,23.12
2022-09-23T07:30:25.120Z,22.68
2022-09-23T07:31:00.351Z,22.47
2022-09-23T07:31:39.081Z,22.50
2022-09-23T07:32:14.402Z,22.56
2022-09-23T07:32:48.954Z,22.03
2022-09-23T07:33:30.426Z,22.03
2022-09-23T07:34:03.953Z,21.74
2022-09-23T07:34:36.377Z,21.85
2022-09-23T07:35:08.741Z,21.93
2022-09-23T07:35:42.230Z,21.75
2022-09-23T07:36:19.584Z,21.74
2022-09-23T07:36:51.094Z,21.38
2022-09-23T07:37:22.589Z,20.93
2022-09-23T07:37:54.112Z,21.04
2022-09-23T07:38:30.110Z,20.86
2022-09-23T07:39:03.579Z,20.22
2022-09-23T07:39:36.699Z,20.99
2022-09-23T07:40:09.501Z,21.01
2022-09-23T07:40:41.105Z,21.18
2022-09-23T07:41:16.067Z,21.54
2022-09-23T07:41:48.114Z,21.85
2022-09-23T07:42:19.603Z,22.09
2022-09-23T07:42:51.153Z,22.41
2022-09-23T07:43:22.649Z,22.32
2022-09-23T07:43:58.646Z,22.21
2022-09-23T07:44:31.639Z,21.88
2022-09-23T07:45:03.223Z,21.92
2022-09-23T07:45:34.915Z,21.96
2022-09-23T07:46:10.947Z,21.97
2022-09-23T07:46:42.863Z,22.40
2022-09-23T07:47:14.601Z,22.16
2022-09-23T07:47:46.124Z,22.09
2022-09-23T07:48:17.639Z,22.36
2022-09-23T07:48:49.153Z,22.57
2022-09-23T07:49:20.650Z,23.18
2022-09-23T07:49:54.165Z,23.38
2022-09-23T07:50:25.658Z,23.33
2022-09-23T07:50:59.410Z,23.46
2022-09-23T07:51:36.410Z,24.14
2022-09-23T07:52:08.449Z,24.70
2022-09-23T07:52:40.147Z,24.69
2022-09-23T07:53:13.687Z,24.87